Time;durP1;ratioP1;P1;durP2;ratioP2;P2;SDS_P1;SDS_P2;PMS_P1;PMS_P2;Temp;Humidity;BMP_temperature;BMP_pressure;BME280_temperature;BME280_humidity;BME280_pressure;Samples;Min_cycle;Max_cycle;Signal;HPM_P1;HPM_P2
2022/11/10 00:00:05;;;;;;;7.18;2.28;;;10.80;99.90;;;;;;5070202;28;20388;-39
2022/11/10 00:02:31;;;;;;;6.25;2.08;;;10.80;99.90;;;;;;5082995;28;20024;-40
2022/11/10 00:04:57;;;;;;;7.03;2.30;;;10.80;99.90;;;;;;5070029;28;20047;-39
2022/11/10 00:07:27;;;;;;;9.45;2.20;;;10.80;99.90;;;;;;5081962;28;20032;-40
2022/11/10 00:09:53;;;;;;;6.75;2.25;;;10.80;99.90;;;;;;5073046;28;20047;-41
2022/11/10 00:12:20;;;;;;;7.60;2.83;;;10.70;99.90;;;;;;5079534;28;20404;-39
2022/11/10 00:17:39;;;;;;;9.38;2.35;;;10.70;99.90;;;;;;5081413;28;20039;-40
2022/11/10 00:20:05;;;;;;;7.05;2.40;;;10.70;99.90;;;;;;5074565;28;20025;-40
2022/11/10 00:22:32;;;;;;;7.00;2.38;;;10.60;99.90;;;;;;5078982;28;20035;-38
2022/11/10 00:24:58;;;;;;;5.25;2.10;;;10.60;99.90;;;;;;5076341;28;20036;-40
2022/11/10 00:27:23;;;;;;;7.28;2.67;;;10.60;99.90;;;;;;5075400;28;20390;-39
2022/11/10 00:29:49;;;;;;;6.25;2.28;;;10.60;99.90;;;;;;5079426;28;20056;-40
2022/11/10 00:32:14;;;;;;;7.38;2.10;;;10.60;99.90;;;;;;5072895;28;20111;-39
2022/11/10 00:34:40;;;;;;;7.65;2.65;;;10.50;99.90;;;;;;5081233;28;20055;-41
2022/11/10 00:37:05;;;;;;;9.07;2.50;;;10.50;99.90;;;;;;5071605;28;20548;-39
2022/11/10 00:39:34;;;;;;;5.35;2.15;;;10.50;99.90;;;;;;5080473;28;20027;-38
2022/11/10 00:41:59;;;;;;;7.43;2.25;;;10.50;99.90;;;;;;5071580;28;20670;-38
2022/11/10 00:44:25;;;;;;;7.88;2.22;;;10.50;99.90;;;;;;5082028;28;20636;-40
2022/11/10 00:46:50;;;;;;;6.07;2.10;;;10.40;99.90;;;;;;5073738;28;20078;-40
2022/11/10 00:49:16;;;;;;;5.28;1.90;;;10.40;99.90;;;;;;5062212;28;20039;-40
2022/11/10 00:51:41;;;;;;;8.40;2.33;;;10.40;99.90;;;;;;5074784;28;20028;-39
2022/11/10 00:54:07;;;;;;;8.20;2.10;;;10.40;99.90;;;;;;5061474;28;20029;-39
2022/11/10 00:56:33;;;;;;;5.88;2.10;;;10.40;99.90;;;;;;5073426;28;20024;-39
2022/11/10 00:58:59;;;;;;;4.90;2.10;;;10.40;99.90;;;;;;5064196;28;20094;-38
2022/11/10 01:01:24;;;;;;;8.25;2.35;;;10.30;99.90;;;;;;5069090;28;20024;-33
2022/11/10 01:03:51;;;;;;;7.03;2.28;;;10.30;99.90;;;;;;5066639;28;20079;-38
2022/11/10 01:06:19;;;;;;;6.30;2.40;;;10.30;99.90;;;;;;5067176;28;20123;-40
2022/11/10 01:08:45;;;;;;;10.18;2.63;;;10.30;99.90;;;;;;5068723;28;20029;-42
2022/11/10 01:11:21;;;;;;;6.47;1.90;;;10.30;99.90;;;;;;5065556;28;20535;-39
2022/11/10 01:13:48;;;;;;;8.27;2.40;;;10.30;99.90;;;;;;5069569;28;20032;-38
2022/11/10 01:16:19;;;;;;;6.82;2.30;;;10.20;99.90;;;;;;5063970;28;20074;-39
2022/11/10 01:18:53;;;;;;;10.02;2.75;;;10.20;99.90;;;;;;5074746;28;20033;-40
2022/11/10 01:21:19;;;;;;;8.07;2.28;;;10.20;99.90;;;;;;5066662;28;20071;-39
2022/11/10 01:23:46;;;;;;;6.53;2.03;;;10.20;99.90;;;;;;5076925;28;20492;-38
2022/11/10 01:26:11;;;;;;;5.13;2.05;;;10.20;99.90;;;;;;5067652;28;20027;-36
2022/11/10 01:28:37;;;;;;;8.05;2.40;;;10.20;99.90;;;;;;5076568;28;20372;-38
2022/11/10 01:31:12;;;;;;;8.77;2.47;;;10.10;99.90;;;;;;5066496;28;20020;-39
2022/11/10 01:33:37;;;;;;;9.82;2.25;;;10.10;99.90;;;;;;5079630;28;20612;-38
2022/11/10 01:36:05;;;;;;;6.32;2.10;;;10.10;99.90;;;;;;5065109;28;20045;-41
2022/11/10 01:38:33;;;;;;;4.60;2.00;;;10.10;99.90;;;;;;5078018;28;20020;-39
2022/11/10 01:41:00;;;;;;;7.43;2.38;;;10.10;99.90;;;;;;5069046;28;20035;-39
2022/11/10 01:43:29;;;;;;;6.63;2.03;;;10.10;99.90;;;;;;5071329;28;20033;-40
2022/11/10 01:46:02;;;;;;;6.68;2.30;;;10.10;99.90;;;;;;5085799;28;20408;-39
2022/11/10 01:48:43;;;;;;;7.40;2.03;;;10.10;99.90;;;;;;5079267;28;20035;-40
2022/11/10 01:51:20;;;;;;;7.60;2.60;;;10.10;99.90;;;;;;5064717;28;20769;-40
2022/11/10 01:53:53;;;;;;;4.78;2.13;;;10.10;99.90;;;;;;5077616;28;20443;-37
2022/11/10 01:56:20;;;;;;;6.03;2.40;;;10.10;99.90;;;;;;5064842;28;20028;-40
2022/11/10 01:58:55;;;;;;;9.85;2.33;;;10.10;99.90;;;;;;5076553;28;20081;-38
2022/11/10 02:01:23;;;;;;;6.28;2.58;;;10.00;99.90;;;;;;5064986;28;20064;-39
2022/11/10 02:03:51;;;;;;;5.78;2.10;;;10.00;99.90;;;;;;5075444;28;20382;-41
2022/11/10 02:06:21;;;;;;;6.40;2.30;;;10.10;99.90;;;;;;5065898;28;20128;-38
2022/11/10 02:08:48;;;;;;;5.35;2.03;;;10.00;99.90;;;;;;5074310;28;20043;-39
2022/11/10 02:11:14;;;;;;;7.10;2.53;;;10.00;99.90;;;;;;5067685;28;20021;-40
2022/11/10 02:13:40;;;;;;;9.98;2.63;;;10.00;99.90;;;;;;5071706;28;20047;-38
2022/11/10 02:16:06;;;;;;;6.63;2.05;;;10.00;99.90;;;;;;5070459;28;20595;-39
2022/11/10 02:18:31;;;;;;;6.60;2.05;;;10.00;99.90;;;;;;5067527;28;20039;-38
2022/11/10 02:20:57;;;;;;;5.85;2.28;;;10.10;99.90;;;;;;5073094;28;20032;-39
2022/11/10 02:23:28;;;;;;;6.55;2.22;;;10.00;99.90;;;;;;5065177;28;20107;-40
2022/11/10 02:25:54;;;;;;;10.68;2.90;;;10.00;99.90;;;;;;5074211;28;20032;-40
2022/11/10 02:28:19;;;;;;;6.88;2.75;;;10.10;99.90;;;;;;5065647;28;20020;-40
2022/11/10 02:30:45;;;;;;;5.10;2.10;;;10.10;99.90;;;;;;5074178;28;20040;-39
2022/11/10 02:33:10;;;;;;;5.70;2.40;;;10.10;99.90;;;;;;5065357;28;20521;-40
2022/11/10 02:35:36;;;;;;;6.13;2.15;;;10.10;99.90;;;;;;5075744;28;20517;-40
2022/11/10 02:38:02;;;;;;;9.38;2.42;;;10.10;99.90;;;;;;5064012;28;20078;-40
2022/11/10 02:40:27;;;;;;;7.68;2.53;;;10.20;99.90;;;;;;5076523;28;20643;-35
2022/11/10 02:42:53;;;;;;;7.88;2.50;;;10.20;99.90;;;;;;5064753;28;20027;-40
2022/11/10 02:45:18;;;;;;;8.02;2.35;;;10.20;99.90;;;;;;5075671;28;20035;-39
2022/11/10 02:47:44;;;;;;;7.47;2.42;;;10.20;99.90;;;;;;5064604;28;20025;-40
2022/11/10 02:50:09;;;;;;;10.68;2.85;;;10.20;99.90;;;;;;5072874;28;20024;-40
2022/11/10 02:52:35;;;;;;;6.95;2.65;;;10.20;99.90;;;;;;5066974;28;20036;-39
2022/11/10 02:55:00;;;;;;;6.50;2.30;;;10.20;99.90;;;;;;5070242;28;20070;-40
2022/11/10 02:57:26;;;;;;;6.75;2.22;;;10.20;99.90;;;;;;5069924;28;20025;-41
2022/11/10 02:59:54;;;;;;;7.95;2.40;;;10.20;99.90;;;;;;5067746;28;20645;-39
2022/11/10 03:02:20;;;;;;;7.70;2.33;;;10.20;99.90;;;;;;5071656;28;20059;-40
2022/11/10 03:04:45;;;;;;;6.07;2.40;;;10.20;99.90;;;;;;5065333;28;20774;-40
2022/11/10 03:07:11;;;;;;;5.22;2.28;;;10.20;99.90;;;;;;5074208;28;20082;-38
2022/11/10 03:09:36;;;;;;;5.60;2.10;;;10.10;99.90;;;;;;5065309;28;20028;-39
2022/11/10 03:12:02;;;;;;;6.63;2.00;;;10.10;99.90;;;;;;5074696;28;20024;-39
2022/11/10 03:14:27;;;;;;;7.63;2.30;;;10.10;99.90;;;;;;5063362;28;20020;-40
2022/11/10 03:16:53;;;;;;;6.97;2.22;;;10.10;99.90;;;;;;5075915;28;20028;-41
2022/11/10 03:19:18;;;;;;;8.70;2.30;;;10.10;99.90;;;;;;5062846;28;20028;-40
2022/11/10 03:21:44;;;;;;;9.07;2.40;;;10.00;99.90;;;;;;5074392;28;20540;-40
2022/11/10 03:24:09;;;;;;;6.03;2.05;;;10.00;99.90;;;;;;5063408;28;20048;-40
2022/11/10 03:26:35;;;;;;;5.88;2.08;;;10.00;99.90;;;;;;5074556;28;20110;-40
2022/11/10 03:29:00;;;;;;;9.65;2.60;;;10.00;99.90;;;;;;5064450;28;20127;-40
2022/11/10 03:31:29;;;;;;;4.13;1.73;;;10.00;99.90;;;;;;5070637;28;20097;-40
2022/11/10 03:34:01;;;;;;;6.70;1.95;;;10.00;99.90;;;;;;5066739;28;20480;-40
2022/11/10 03:36:26;;;;;;;6.72;2.13;;;9.90;99.90;;;;;;5069511;28;20081;-40
2022/11/10 03:38:52;;;;;;;10.13;2.92;;;9.90;99.90;;;;;;5069028;28;20037;-40
2022/11/10 03:41:20;;;;;;;5.45;1.98;;;9.90;99.90;;;;;;5066249;28;20035;-35
2022/11/10 03:43:49;;;;;;;5.88;2.17;;;9.90;99.90;;;;;;5070975;28;20487;-40
2022/11/10 03:46:15;;;;;;;6.88;2.30;;;9.90;99.90;;;;;;5065426;28;20273;-39
2022/11/10 03:48:41;;;;;;;5.30;2.08;;;9.90;99.90;;;;;;5073003;28;20029;-40
2022/11/10 03:51:07;;;;;;;8.02;2.40;;;9.90;99.90;;;;;;5064528;28;20425;-40
2022/11/10 03:53:32;;;;;;;7.43;2.03;;;9.90;99.90;;;;;;5074338;28;20028;-39
2022/11/10 03:56:02;;;;;;;6.85;2.30;;;9.80;99.90;;;;;;5062654;28;20017;-41
2022/11/10 03:58:28;;;;;;;6.28;2.00;;;9.80;99.90;;;;;;5073939;28;20029;-41
2022/11/10 04:00:54;;;;;;;6.43;3.22;;;9.80;99.90;;;;;;5062827;28;20016;-40
2022/11/10 04:03:20;;;;;;;5.93;1.83;;;9.80;99.90;;;;;;5074263;28;20028;-39
2022/11/10 04:15:40;;;;;;;7.20;2.40;;;9.70;99.90;;;;;;5067687;28;20122;-40
2022/11/10 04:16:47;;;;;;;6.63;2.80;;;9.70;99.90;;;;;;5081055;28;20047;-41
2022/11/10 04:19:13;;;;;;;8.60;2.55;;;9.70;99.90;;;;;;5070802;28;20028;-40
2022/11/10 04:21:38;;;;;;;5.88;2.50;;;9.70;99.90;;;;;;5083312;28;20745;-39
2022/11/10 04:24:04;;;;;;;7.82;2.40;;;9.70;99.90;;;;;;5069401;28;20054;-40
2022/11/10 04:26:31;;;;;;;8.02;2.22;;;9.60;99.90;;;;;;5082401;28;20028;-39
2022/11/10 04:29:05;;;;;;;6.00;2.28;;;9.60;99.90;;;;;;5070692;28;20040;-38
2022/11/10 04:31:32;;;;;;;6.90;2.00;;;9.70;99.90;;;;;;5081980;28;20020;-41
2022/11/10 04:33:59;;;;;;;10.90;2.42;;;9.70;99.90;;;;;;5070806;28;20212;-38
2022/11/10 04:36:26;;;;;;;6.45;2.25;;;9.60;99.90;;;;;;5082103;28;20418;-40
2022/11/10 04:38:54;;;;;;;6.57;2.30;;;9.70;99.90;;;;;;5072610;28;20051;-39
2022/11/10 04:41:20;;;;;;;7.85;2.35;;;9.70;99.90;;;;;;5080389;28;20031;-39
2022/11/10 04:43:45;;;;;;;5.20;1.88;;;9.60;99.90;;;;;;5074955;28;20036;-38
2022/11/10 04:46:26;;;;;;;4.53;2.00;;;9.70;99.90;;;;;;5076661;28;20031;-41
2022/11/10 04:48:53;;;;;;;7.43;2.15;;;9.70;99.90;;;;;;5076161;28;20055;-36
2022/11/10 04:51:21;;;;;;;8.10;2.25;;;9.70;99.90;;;;;;5076626;28;20121;-38
2022/11/10 04:53:46;;;;;;;9.57;2.50;;;9.70;99.90;;;;;;5079743;28;20021;-39
2022/11/10 04:56:17;;;;;;;8.55;2.17;;;9.70;99.90;;;;;;5078028;28;20024;-38
2022/11/10 04:58:44;;;;;;;7.10;2.33;;;9.80;99.90;;;;;;5083512;28;20047;-40
2022/11/10 05:01:11;;;;;;;9.65;2.60;;;9.80;99.90;;;;;;5076550;28;20506;-40
2022/11/10 05:03:41;;;;;;;7.93;2.63;;;9.70;99.90;;;;;;5085408;28;20047;-40
2022/11/10 05:06:07;;;;;;;4.85;2.00;;;9.70;99.90;;;;;;5074423;28;20219;-38
2022/11/10 05:08:33;;;;;;;7.57;2.10;;;9.70;99.90;;;;;;5085009;28;20527;-39
2022/11/10 05:10:58;;;;;;;5.47;2.13;;;9.80;99.90;;;;;;5075245;28;20020;-40
2022/11/10 05:13:24;;;;;;;8.95;2.50;;;9.70;99.90;;;;;;5085198;28;20031;-40
2022/11/10 05:15:50;;;;;;;8.68;2.60;;;9.70;99.90;;;;;;5073716;28;20467;-40
2022/11/10 05:18:16;;;;;;;6.70;2.10;;;9.70;99.90;;;;;;5086460;28;20172;-37
2022/11/10 05:20:42;;;;;;;7.32;2.30;;;9.70;99.90;;;;;;5072579;28;20873;-38
2022/11/10 05:25:51;;;;;;;8.15;2.17;;;9.70;99.90;;;;;;5073577;28;20128;-37
2022/11/10 05:28:17;;;;;;;7.32;1.98;;;9.70;99.90;;;;;;5084959;28;20032;-39
2022/11/10 05:30:43;;;;;;;8.27;2.17;;;9.70;99.90;;;;;;5074942;28;20036;-37
2022/11/10 05:33:08;;;;;;;6.85;2.42;;;9.70;99.90;;;;;;5083567;28;20030;-39
2022/11/10 05:35:35;;;;;;;9.07;2.20;;;9.70;99.90;;;;;;5076652;28;20070;-39
2022/11/10 05:38:01;;;;;;;6.97;2.10;;;9.70;99.90;;;;;;5080090;28;20142;-39
2022/11/10 05:40:27;;;;;;;9.75;2.33;;;9.70;99.90;;;;;;5079910;28;20435;-40
2022/11/10 05:42:52;;;;;;;8.43;1.90;;;9.70;99.90;;;;;;5078199;28;20816;-39
2022/11/10 05:45:23;;;;;;;7.05;2.10;;;9.70;99.90;;;;;;5081806;28;20123;-40
2022/11/10 05:47:51;;;;;;;5.57;2.03;;;9.70;99.90;;;;;;5076603;28;20057;-40
2022/11/10 05:50:18;;;;;;;7.40;2.25;;;9.60;99.90;;;;;;5083316;28;20502;-39
2022/11/10 05:52:46;;;;;;;7.50;2.28;;;9.60;99.90;;;;;;5075861;28;20074;-39
2022/11/10 05:55:13;;;;;;;8.40;2.00;;;9.60;99.90;;;;;;5083521;28;20025;-38
2022/11/10 05:57:42;;;;;;;6.50;1.90;;;9.60;99.90;;;;;;5074582;28;20031;-40
2022/11/10 06:00:09;;;;;;;8.57;2.25;;;9.60;99.90;;;;;;5084690;28;20020;-40
2022/11/10 06:02:35;;;;;;;5.93;1.90;;;9.60;99.90;;;;;;5073831;28;20116;-40
2022/11/10 06:05:00;;;;;;;5.38;1.80;;;9.60;99.90;;;;;;5085392;28;20438;-40
2022/11/10 06:07:26;;;;;;;6.75;2.20;;;9.60;99.90;;;;;;5071797;28;20029;-39
2022/11/10 06:09:51;;;;;;;8.32;2.47;;;9.60;99.90;;;;;;5084647;28;20068;-38
2022/11/10 06:12:17;;;;;;;7.35;2.30;;;9.60;99.90;;;;;;5072579;28;20025;-38
2022/11/10 06:14:42;;;;;;;6.25;2.15;;;9.50;99.90;;;;;;5084732;28;20479;-41
2022/11/10 06:17:08;;;;;;;6.65;2.47;;;9.60;99.90;;;;;;5074619;28;20016;-40
2022/11/10 06:19:33;;;;;;;9.25;2.17;;;9.50;99.90;;;;;;5082612;28;20035;-39
2022/11/10 06:22:02;;;;;;;9.35;2.05;;;9.50;99.90;;;;;;5078202;28;20093;-40
2022/11/10 06:24:27;;;;;;;8.27;2.15;;;9.50;99.90;;;;;;5078887;28;20044;-38
2022/11/10 06:26:53;;;;;;;6.57;1.90;;;9.50;99.90;;;;;;5080740;28;20016;-39
2022/11/10 06:29:21;;;;;;;9.43;3.00;;;9.50;99.90;;;;;;5076268;28;20498;-38
2022/11/10 06:31:46;;;;;;;10.73;2.42;;;9.50;99.90;;;;;;5081777;28;20013;-38
2022/11/10 06:34:12;;;;;;;8.18;2.28;;;9.50;99.90;;;;;;5073996;28;20081;-38
2022/11/10 06:36:39;;;;;;;8.02;2.30;;;9.50;99.90;;;;;;5083080;28;20051;-39
2022/11/10 06:39:05;;;;;;;8.38;1.90;;;9.50;99.90;;;;;;5073414;28;20047;-39
2022/11/10 06:41:32;;;;;;;8.25;2.55;;;9.50;99.90;;;;;;5083529;28;20073;-40
2022/11/10 06:43:58;;;;;;;9.05;2.17;;;9.50;99.90;;;;;;5072735;28;20024;-39
2022/11/10 06:46:23;;;;;;;9.93;2.60;;;9.50;99.90;;;;;;5084161;28;20020;-39
2022/11/10 06:48:49;;;;;;;7.85;2.17;;;9.50;99.90;;;;;;5080365;28;20085;-38
2022/11/10 06:51:14;;;;;;;6.40;2.20;;;9.50;99.90;;;;;;5080595;28;20093;-41
2022/11/10 06:53:41;;;;;;;5.53;2.20;;;9.50;99.90;;;;;;5078292;28;20545;-41
2022/11/10 06:56:06;;;;;;;7.30;2.47;;;9.50;99.90;;;;;;5062762;28;20031;-38
2022/11/10 06:58:32;;;;;;;7.50;2.10;;;9.50;99.90;;;;;;5071716;28;20032;-39
2022/11/10 07:00:59;;;;;;;6.80;2.13;;;9.50;99.90;;;;;;5067164;28;20029;-39
2022/11/10 07:03:25;;;;;;;6.65;2.03;;;9.50;99.90;;;;;;5070732;28;20468;-41
2022/11/10 07:05:51;;;;;;;8.07;2.08;;;9.50;99.90;;;;;;5071716;28;20523;-41
2022/11/10 07:08:17;;;;;;;8.90;2.17;;;9.50;99.90;;;;;;5079216;28;20156;-37
2022/11/10 07:10:51;;;;;;;8.98;2.50;;;9.50;99.90;;;;;;5079720;28;20487;-38
2022/11/10 07:13:23;;;;;;;6.25;2.42;;;9.50;99.90;;;;;;5078504;28;20025;-40
2022/11/10 07:15:48;;;;;;;7.07;2.15;;;9.50;99.90;;;;;;5080152;28;20031;-38
2022/11/10 07:18:14;;;;;;;6.82;2.03;;;9.50;99.90;;;;;;5081019;28;20021;-39
2022/11/10 07:20:40;;;;;;;7.75;2.05;;;9.50;99.90;;;;;;5071672;28;20031;-40
2022/11/10 07:23:07;;;;;;;7.65;2.10;;;9.60;99.90;;;;;;5081302;28;20024;-41
2022/11/10 07:25:35;;;;;;;6.93;1.70;;;9.60;99.90;;;;;;5078368;28;20037;-38
2022/11/10 07:28:03;;;;;;;3.70;1.77;;;9.60;99.90;;;;;;5081965;28;20522;-40
2022/11/10 07:30:31;;;;;;;8.88;2.00;;;9.60;99.90;;;;;;5075159;28;20372;-38
2022/11/10 07:33:00;;;;;;;5.28;1.83;;;9.60;99.90;;;;;;5083900;28;20027;-35
2022/11/10 07:35:27;;;;;;;5.90;1.80;;;9.60;99.90;;;;;;5077231;28;20536;-40
2022/11/10 07:37:54;;;;;;;5.22;1.70;;;9.70;99.90;;;;;;5083201;28;20020;-39
2022/11/10 07:40:23;;;;;;;7.35;1.98;;;9.70;99.90;;;;;;5075436;28;20028;-41
2022/11/10 07:42:48;;;;;;;4.15;1.63;;;9.70;99.90;;;;;;5081034;28;20103;-39
2022/11/10 07:45:14;;;;;;;5.32;1.75;;;9.70;99.90;;;;;;5077206;28;20495;-40
2022/11/10 07:47:40;;;;;;;8.07;2.67;;;9.70;99.90;;;;;;5080238;28;20016;-39
2022/11/10 07:50:06;;;;;;;6.95;2.22;;;9.80;99.90;;;;;;5078562;28;20111;-37
2022/11/10 07:52:31;;;;;;;6.57;2.42;;;9.80;99.90;;;;;;5079211;28;20028;-40
2022/11/10 07:54:57;;;;;;;6.63;2.08;;;9.90;99.90;;;;;;5079072;28;20354;-39
2022/11/10 07:57:22;;;;;;;7.28;2.30;;;9.90;99.90;;;;;;5077053;28;20016;-36
2022/11/10 07:59:48;;;;;;;4.93;2.03;;;9.90;99.90;;;;;;5077273;28;20043;-38
2022/11/10 08:02:14;;;;;;;8.68;2.00;;;10.00;99.90;;;;;;5071680;28;20656;-40
2022/11/10 08:04:39;;;;;;;5.03;1.80;;;10.00;99.90;;;;;;5064536;28;20123;-40
2022/11/10 08:07:05;;;;;;;6.88;2.20;;;10.00;99.90;;;;;;5075138;28;20126;-37
2022/11/10 08:09:30;;;;;;;9.68;2.20;;;10.10;99.90;;;;;;5063847;28;20502;-40
2022/11/10 08:11:59;;;;;;;6.35;2.03;;;10.10;99.90;;;;;;5074290;28;20021;-38
2022/11/10 08:14:24;;;;;;;10.25;2.70;;;10.10;99.90;;;;;;5073907;28;20833;-40
2022/11/10 08:16:53;;;;;;;7.07;2.30;;;10.20;99.90;;;;;;5073838;28;20016;-41
2022/11/10 08:19:19;;;;;;;5.03;1.85;;;10.30;99.90;;;;;;5081360;28;20058;-40
2022/11/10 08:21:44;;;;;;;9.00;2.40;;;10.30;99.90;;;;;;5076908;28;20031;-40
2022/11/10 08:24:19;;;;;;;9.73;3.70;;;10.40;99.90;;;;;;5078971;28;20043;-40
2022/11/10 08:26:44;;;;;;;7.50;2.25;;;10.40;99.90;;;;;;5077072;28;20020;-40
2022/11/10 08:29:10;;;;;;;7.00;2.10;;;10.50;99.90;;;;;;5083644;28;20715;-41
2022/11/10 08:31:38;;;;;;;7.20;2.05;;;10.50;99.90;;;;;;5081911;28;20085;-41
2022/11/10 08:34:04;;;;;;;9.35;2.95;;;10.50;99.90;;;;;;5084007;28;20057;-40
2022/11/10 08:36:30;;;;;;;8.60;2.15;;;10.60;99.90;;;;;;5082584;28;20499;-39
2022/11/10 08:38:55;;;;;;;6.18;1.98;;;10.70;99.90;;;;;;5087504;28;20040;-40
2022/11/10 08:41:21;;;;;;;8.15;2.20;;;10.70;99.90;;;;;;5082294;28;20096;-39
2022/11/10 08:43:49;;;;;;;8.63;2.22;;;10.80;99.90;;;;;;5077144;28;20050;-40
2022/11/10 08:46:15;;;;;;;11.30;2.22;;;10.80;99.90;;;;;;5084611;28;20149;-41
2022/11/10 08:48:40;;;;;;;10.75;2.22;;;10.90;99.90;;;;;;5076368;28;20032;-41
2022/11/10 08:51:06;;;;;;;8.18;2.60;;;11.00;99.90;;;;;;5084638;28;20020;-40
2022/11/10 08:53:31;;;;;;;7.95;1.98;;;11.10;99.90;;;;;;5074964;28;20494;-40
2022/11/10 08:55:58;;;;;;;5.43;1.70;;;11.10;99.90;;;;;;5086290;28;20023;-40
2022/11/10 08:58:24;;;;;;;8.35;2.15;;;11.20;99.90;;;;;;5073155;28;20464;-37
2022/11/10 09:00:50;;;;;;;11.05;3.35;;;11.30;99.90;;;;;;5086404;28;20034;-41
2022/11/10 09:03:21;;;;;;;9.75;2.28;;;11.30;99.90;;;;;;5072823;28;20028;-40
2022/11/10 09:05:48;;;;;;;7.10;2.50;;;11.40;99.90;;;;;;5086638;28;20123;-40
2022/11/10 09:08:14;;;;;;;5.40;1.77;;;11.40;99.90;;;;;;5073062;28;20020;-40
2022/11/10 09:10:45;;;;;;;7.95;2.40;;;11.40;99.90;;;;;;5085279;28;20063;-40
2022/11/10 09:13:12;;;;;;;9.65;2.20;;;11.50;99.90;;;;;;5076186;28;20047;-40
2022/11/10 09:15:38;;;;;;;9.00;2.38;;;11.40;99.90;;;;;;5067838;28;20021;-41
2022/11/10 09:18:07;;;;;;;4.55;1.88;;;11.40;99.90;;;;;;5074234;28;20032;-40
2022/11/10 09:20:35;;;;;;;7.45;2.03;;;11.50;99.90;;;;;;5069292;28;20044;-41
2022/11/10 09:23:15;;;;;;;7.93;2.33;;;11.50;99.90;;;;;;5072165;28;20016;-38
2022/11/10 09:25:42;;;;;;;6.25;1.90;;;11.50;99.90;;;;;;5068972;28;20392;-40
2022/11/10 09:28:12;;;;;;;5.95;2.03;;;11.50;99.90;;;;;;5071642;28;20020;-41
2022/11/10 09:30:38;;;;;;;5.90;1.90;;;11.60;99.90;;;;;;5072379;28;20173;-39
2022/11/10 09:33:03;;;;;;;8.60;3.22;;;11.60;99.90;;;;;;5069144;28;20813;-40
2022/11/10 09:35:29;;;;;;;9.32;2.30;;;11.70;99.90;;;;;;5073879;28;20551;-40
2022/11/10 09:37:54;;;;;;;10.77;2.90;;;11.70;99.90;;;;;;5067053;28;20028;-39
2022/11/10 09:40:43;;;;;;;6.97;2.30;;;11.70;99.90;;;;;;5075990;28;20020;-41
2022/11/10 09:43:18;;;;;;;11.07;2.65;;;11.70;99.90;;;;;;5066855;28;20033;-40
2022/11/10 09:45:49;;;;;;;7.00;2.28;;;11.80;99.90;;;;;;5075045;28;20060;-39
2022/11/10 09:48:24;;;;;;;12.00;3.20;;;11.80;99.90;;;;;;5066049;28;20028;-40
2022/11/10 09:51:11;;;;;;;11.63;2.80;;;11.90;99.90;;;;;;5076236;28;20020;-41
2022/11/10 09:53:52;;;;;;;5.93;2.38;;;11.90;99.90;;;;;;5083107;28;20040;-39
2022/11/10 09:56:34;;;;;;;9.57;2.75;;;12.00;99.90;;;;;;5077941;28;20039;-39
2022/11/10 09:59:05;;;;;;;5.87;1.90;;;12.00;99.90;;;;;;5081117;28;20063;-40
2022/11/10 10:01:43;;;;;;;6.47;2.55;;;12.10;99.90;;;;;;5075891;28;20035;-40
2022/11/10 10:04:15;;;;;;;6.63;2.47;;;12.10;99.90;;;;;;5079987;28;20032;-40
2022/11/10 10:07:10;;;;;;;8.20;2.50;;;12.20;99.90;;;;;;5078742;28;20024;-39
2022/11/10 10:10:00;;;;;;;6.88;2.00;;;12.30;99.90;;;;;;5078448;28;20028;-40
2022/11/10 10:12:56;;;;;;;8.38;2.53;;;12.30;99.90;;;;;;5082862;28;20055;-39
2022/11/10 10:15:39;;;;;;;10.75;2.47;;;12.40;99.90;;;;;;5072502;28;20044;-42
2022/11/10 10:18:31;;;;;;;5.18;1.95;;;12.40;99.90;;;;;;5065608;28;20028;-39
2022/11/10 10:21:33;;;;;;;9.48;2.17;;;12.50;99.90;;;;;;5077818;28;20504;-40
2022/11/10 10:24:01;;;;;;;11.07;2.17;;;12.50;99.90;;;;;;5064641;28;20175;-40
2022/11/10 10:26:29;;;;;;;8.55;2.15;;;12.60;99.90;;;;;;5075773;28;20274;-38
2022/11/10 10:29:00;;;;;;;8.55;2.30;;;12.60;99.90;;;;;;5065378;28;20021;-37
2022/11/10 10:31:32;;;;;;;7.35;2.25;;;12.70;99.90;;;;;;5077477;28;20901;-40
2022/11/10 10:33:58;;;;;;;7.43;2.25;;;12.80;99.90;;;;;;5065302;28;20103;-41
2022/11/10 10:36:29;;;;;;;7.70;2.70;;;12.90;99.90;;;;;;5076291;28;20076;-39
2022/11/10 10:39:00;;;;;;;9.68;2.58;;;12.90;99.90;;;;;;5065492;28;20024;-40
2022/11/10 10:41:31;;;;;;;7.75;2.10;;;12.90;99.90;;;;;;5075438;28;20050;-39
2022/11/10 10:43:59;;;;;;;7.53;2.20;;;13.00;99.90;;;;;;5064384;28;20044;-40
2022/11/10 10:46:27;;;;;;;9.75;2.22;;;13.00;99.90;;;;;;5076394;28;20028;-40
2022/11/10 10:49:07;;;;;;;8.93;2.22;;;13.10;99.90;;;;;;5064792;28;20112;-40
2022/11/10 10:51:35;;;;;;;6.90;2.13;;;13.10;99.90;;;;;;5074358;28;20024;-38
2022/11/10 10:54:01;;;;;;;6.72;2.40;;;13.20;99.90;;;;;;5065822;28;20023;-40
2022/11/10 10:56:31;;;;;;;4.03;1.92;;;13.20;99.90;;;;;;5073253;28;20366;-38
2022/11/10 10:59:00;;;;;;;5.63;1.90;;;13.30;99.90;;;;;;5066878;28;20402;-40
2022/11/10 11:01:29;;;;;;;6.50;2.00;;;13.30;99.90;;;;;;5071808;28;20554;-39
2022/11/10 11:03:56;;;;;;;5.18;1.85;;;13.30;99.90;;;;;;5068250;28;20495;-40
2022/11/10 11:06:25;;;;;;;7.47;2.05;;;13.40;99.90;;;;;;5068730;28;20742;-40
2022/11/10 11:09:15;;;;;;;11.23;2.50;;;13.50;99.90;;;;;;5070730;28;20032;-41
2022/11/10 11:11:44;;;;;;;9.90;2.50;;;13.50;99.90;;;;;;5070791;28;20054;-41
2022/11/10 11:14:28;;;;;;;9.32;2.17;;;13.60;99.90;;;;;;5067869;28;20490;-41
2022/11/10 11:16:55;;;;;;;8.57;2.45;;;13.60;99.90;;;;;;5070726;28;20024;-38
2022/11/10 11:19:24;;;;;;;8.52;1.80;;;13.70;99.90;;;;;;5067918;28;20021;-40
2022/11/10 11:22:11;;;;;;;4.88;1.98;;;13.80;99.90;;;;;;5069327;28;20024;-40
2022/11/10 11:24:57;;;;;;;8.57;2.28;;;13.80;99.90;;;;;;5068560;28;20440;-40
2022/11/10 11:27:47;;;;;;;5.88;2.10;;;13.90;99.90;;;;;;5053196;28;20032;-40
2022/11/10 11:30:23;;;;;;;7.80;2.40;;;13.90;99.90;;;;;;5064240;28;20111;-40
2022/11/10 11:33:13;;;;;;;8.23;2.30;;;14.00;99.90;;;;;;5074109;28;20103;-41
2022/11/10 11:35:42;;;;;;;6.10;1.98;;;14.00;99.90;;;;;;5064244;28;20059;-37
2022/11/10 11:38:12;;;;;;;6.15;2.28;;;14.00;99.90;;;;;;5074686;28;20517;-41
2022/11/10 11:41:00;;;;;;;7.90;2.00;;;14.00;99.90;;;;;;5062684;28;20029;-39
2022/11/10 11:43:44;;;;;;;10.68;2.40;;;14.00;99.90;;;;;;5075295;28;20032;-38
2022/11/10 11:46:21;;;;;;;6.57;1.95;;;14.10;99.90;;;;;;5063106;28;20040;-41
2022/11/10 11:48:55;;;;;;;6.45;2.00;;;14.10;99.90;;;;;;5075733;28;20106;-40
2022/11/10 11:51:49;;;;;;;7.10;2.10;;;14.20;99.90;;;;;;5062453;28;20036;-41
2022/11/10 11:54:15;;;;;;;5.38;1.75;;;14.20;99.90;;;;;;5070228;28;20024;-41
2022/11/10 11:56:43;;;;;;;6.45;2.00;;;14.30;99.90;;;;;;5083361;28;20051;-39
2022/11/10 11:59:19;;;;;;;5.82;1.70;;;14.40;99.90;;;;;;5069905;28;20052;-40
2022/11/10 12:01:55;;;;;;;5.13;1.70;;;14.40;99.90;;;;;;5082746;28;20028;-38
2022/11/10 12:04:43;;;;;;;7.13;1.77;;;14.50;99.90;;;;;;5070173;28;20467;-40
2022/11/10 12:07:45;;;;;;;6.47;2.00;;;14.60;99.90;;;;;;5082959;28;20024;-40
2022/11/10 12:10:42;;;;;;;7.03;1.90;;;14.60;99.90;;;;;;5071673;28;20627;-40
2022/11/10 12:13:21;;;;;;;8.02;2.05;;;14.70;99.90;;;;;;5081095;28;20053;-40
2022/11/10 12:16:32;;;;;;;6.72;1.60;;;14.80;99.90;;;;;;5073952;28;20039;-40
2022/11/10 12:19:21;;;;;;;7.18;2.72;;;14.80;99.90;;;;;;5071024;28;20060;-40
2022/11/10 12:22:14;;;;;;;7.05;2.17;;;14.80;99.90;;;;;;5080488;28;20502;-38
2022/11/10 12:24:45;;;;;;;6.53;1.80;;;14.80;99.90;;;;;;5071042;28;20037;-40
2022/11/10 12:27:19;;;;;;;7.38;1.88;;;14.90;99.90;;;;;;5082672;28;20032;-39
2022/11/10 12:29:56;;;;;;;10.02;2.53;;;14.90;99.90;;;;;;5071450;28;20078;-40
2022/11/10 12:32:55;;;;;;;5.55;1.67;;;14.90;99.90;;;;;;5082354;28;20028;-40
2022/11/10 12:35:25;;;;;;;5.10;1.63;;;14.90;99.90;;;;;;5069591;28;20048;-39
2022/11/10 12:38:06;;;;;;;6.43;1.60;;;15.00;99.90;;;;;;5083010;28;20047;-40
2022/11/10 12:40:40;;;;;;;7.28;1.80;;;15.00;99.90;;;;;;5069826;28;20040;-42
2022/11/10 12:43:19;;;;;;;5.82;1.65;;;15.10;99.90;;;;;;5082235;28;20700;-40
2022/11/10 12:45:50;;;;;;;4.53;1.63;;;15.10;99.90;;;;;;5070339;28;20041;-40
2022/11/10 12:48:17;;;;;;;4.60;1.50;;;15.10;99.90;;;;;;5083249;28;20142;-39
2022/11/10 12:51:07;;;;;;;4.47;1.50;;;15.10;99.90;;;;;;5069246;28;20028;-40
2022/11/10 12:53:37;;;;;;;6.18;1.65;;;15.20;99.90;;;;;;5082868;28;20074;-41
2022/11/10 12:56:18;;;;;;;5.97;1.45;;;15.20;99.90;;;;;;5070630;28;20060;-40
2022/11/10 12:58:43;;;;;;;7.70;1.58;;;15.20;99.90;;;;;;5082378;28;20032;-40
2022/11/10 13:01:16;;;;;;;7.90;1.73;;;15.20;99.90;;;;;;5069925;28;20031;-40
2022/11/10 13:03:55;;;;;;;4.78;1.42;;;15.20;99.90;;;;;;5083484;28;20024;-40
2022/11/10 13:06:30;;;;;;;5.00;1.20;;;15.20;99.90;;;;;;5069664;28;20032;-41
2022/11/10 13:08:58;;;;;;;7.05;1.67;;;15.20;99.90;;;;;;5082956;28;20012;-40
2022/11/10 13:11:33;;;;;;;6.82;1.73;;;15.20;99.90;;;;;;5069134;28;20032;-39
2022/11/10 13:14:01;;;;;;;7.57;1.65;;;15.30;99.90;;;;;;5084280;28;20171;-35
2022/11/10 13:16:41;;;;;;;7.30;2.90;;;15.30;99.90;;;;;;5073129;28;20048;-39